Time;durP1;ratioP1;P1;durP2;ratioP2;P2;SDS_P1;SDS_P2;PMS_P1;PMS_P2;Temp;Humidity;BMP_temperature;BMP_pressure;BME280_temperature;BME280_humidity;BME280_pressure;Samples;Min_cycle;Max_cycle;Signal;HPM_P1;HPM_P2
2023/03/13 00:01:59;;;;;;;15.18;8.75;;;;;;;;;;5057120;28;20339;-77
2023/03/13 00:04:25;;;;;;;15.05;8.60;;;;;;;;;;5073633;28;20086;-78
2023/03/13 00:06:50;;;;;;;14.50;7.93;;;;;;;;;;5040427;28;20028;-78
2023/03/13 00:09:16;;;;;;;17.30;8.50;;;;;;;;;;5057303;28;20365;-78
2023/03/13 00:11:43;;;;;;;14.90;8.27;;;;;;;;;;5073331;28;20442;-77
2023/03/13 00:14:08;;;;;;;13.48;8.82;;;;;;;;;;5075306;28;20076;-79
2023/03/13 00:16:34;;;;;;;14.38;8.13;;;;;;;;;;5056942;28;20123;-78
2023/03/13 00:19:00;;;;;;;15.07;7.95;;;;;;;;;;5074635;28;20024;-78
2023/03/13 00:21:26;;;;;;;15.35;9.52;;;;;;;;;;5057066;28;20043;-79
2023/03/13 00:23:52;;;;;;;16.65;9.18;;;;;;;;;;5040335;28;20044;-78
2023/03/13 00:26:19;;;;;;;16.35;9.23;;;;;;;;;;5072118;28;20024;-78
2023/03/13 00:28:44;;;;;;;16.35;9.93;;;;;;;;;;5075023;28;20050;-78
2023/03/13 00:31:20;;;;;;;17.15;10.05;;;;;;;;;;5042496;28;20024;-78
2023/03/13 00:33:46;;;;;;;18.38;9.30;;;;;;;;;;5073245;28;20136;-78
2023/03/13 00:36:17;;;;;;;16.88;9.90;;;;;;;;;;5057204;28;20063;-78
2023/03/13 00:38:42;;;;;;;19.20;10.93;;;;;;;;;;5060256;28;20032;-78
2023/03/13 00:41:12;;;;;;;20.08;10.25;;;;;;;;;;5066135;28;20031;-78
2023/03/13 00:43:38;;;;;;;18.60;10.40;;;;;;;;;;5083248;28;20096;-78
2023/03/13 00:46:03;;;;;;;23.52;11.23;;;;;;;;;;5063317;28;20504;-79
2023/03/13 00:48:29;;;;;;;18.67;10.55;;;;;;;;;;5064829;28;20017;-78
2023/03/13 00:50:54;;;;;;;18.40;10.13;;;;;;;;;;5064410;28;20024;-78
2023/03/13 00:53:20;;;;;;;16.85;9.25;;;;;;;;;;5044746;28;20062;-78
2023/03/13 00:56:02;;;;;;;16.20;9.23;;;;;;;;;;5056025;28;20020;-78
2023/03/13 00:58:28;;;;;;;18.95;9.23;;;;;;;;;;5057540;28;20454;-78
2023/03/13 01:00:54;;;;;;;22.42;9.57;;;;;;;;;;5056290;28;20019;-78
2023/03/13 01:03:20;;;;;;;15.57;9.05;;;;;;;;;;5072828;28;20119;-78
2023/03/13 01:05:55;;;;;;;17.65;9.70;;;;;;;;;;5072899;28;20107;-78
2023/03/13 01:08:21;;;;;;;17.60;8.82;;;;;;;;;;5072513;28;20032;-78
2023/03/13 01:10:46;;;;;;;14.68;8.48;;;;;;;;;;5072871;28;20074;-78
2023/03/13 01:13:11;;;;;;;15.10;8.55;;;;;;;;;;5073810;28;20123;-78
2023/03/13 01:15:37;;;;;;;14.75;8.82;;;;;;;;;;5072623;28;20119;-78
2023/03/13 01:18:02;;;;;;;17.55;8.63;;;;;;;;;;5072789;28;20111;-78
2023/03/13 01:20:29;;;;;;;15.75;8.23;;;;;;;;;;5072556;28;20119;-79
2023/03/13 01:22:54;;;;;;;16.48;9.40;;;;;;;;;;5072244;28;20036;-78
2023/03/13 01:25:20;;;;;;;13.30;8.35;;;;;;;;;;5055952;28;20028;-78
2023/03/13 01:27:45;;;;;;;16.10;8.65;;;;;;;;;;5074113;28;20032;-79
2023/03/13 01:30:11;;;;;;;18.15;8.98;;;;;;;;;;5072756;28;20149;-79
2023/03/13 01:32:36;;;;;;;15.55;8.25;;;;;;;;;;5073613;28;20032;-78
2023/03/13 01:35:02;;;;;;;13.50;7.65;;;;;;;;;;5073664;28;20024;-78
2023/03/13 01:37:27;;;;;;;13.35;7.60;;;;;;;;;;5056569;28;20024;-79
2023/03/13 01:39:53;;;;;;;12.07;7.70;;;;;;;;;;5043181;28;20048;-79
2023/03/13 01:42:18;;;;;;;13.85;7.32;;;;;;;;;;5077676;28;20450;-79
2023/03/13 01:44:54;;;;;;;13.90;8.27;;;;;;;;;;5076306;28;20382;-78
2023/03/13 01:47:20;;;;;;;15.32;7.35;;;;;;;;;;5059933;28;20055;-79
2023/03/13 01:49:45;;;;;;;16.48;8.52;;;;;;;;;;5043033;28;20441;-78
2023/03/13 01:52:19;;;;;;;14.60;8.68;;;;;;;;;;5076033;28;20024;-79
2023/03/13 01:54:54;;;;;;;17.52;8.95;;;;;;;;;;5060152;28;20032;-78
2023/03/13 01:57:30;;;;;;;13.10;7.72;;;;;;;;;;5076134;28;20430;-79
2023/03/13 01:59:59;;;;;;;15.75;8.48;;;;;;;;;;5076161;28;20033;-79
2023/03/13 02:02:25;;;;;;;13.50;8.13;;;;;;;;;;5077212;28;20024;-78
2023/03/13 02:04:53;;;;;;;15.13;8.02;;;;;;;;;;5042665;28;20278;-78
2023/03/13 02:07:34;;;;;;;13.07;7.57;;;;;;;;;;5042956;28;20354;-78
2023/03/13 02:09:59;;;;;;;14.73;7.75;;;;;;;;;;5077078;28;20033;-78
2023/03/13 02:12:35;;;;;;;12.57;7.30;;;;;;;;;;5059123;28;20595;-79
2023/03/13 02:15:09;;;;;;;13.27;7.57;;;;;;;;;;5059297;28;20054;-79
2023/03/13 02:17:35;;;;;;;15.10;8.00;;;;;;;;;;5060120;28;20032;-78
2023/03/13 02:20:00;;;;;;;12.88;7.63;;;;;;;;;;5059095;28;20028;-77
2023/03/13 02:22:41;;;;;;;14.35;8.23;;;;;;;;;;5075330;28;20070;-78
2023/03/13 02:25:11;;;;;;;14.00;7.70;;;;;;;;;;5059422;28;20460;-78
2023/03/13 02:27:37;;;;;;;;;;;;;;;;;;5043348;28;20028;-79
2023/03/13 02:30:03;;;;;;;16.38;7.45;;;;;;;;;;5059085;28;19912;-78
2023/03/13 02:32:31;;;;;;;11.27;7.60;;;;;;;;;;5075458;28;20074;-79
2023/03/13 02:35:00;;;;;;;14.00;7.80;;;;;;;;;;5058925;28;20066;-79
2023/03/13 02:37:26;;;;;;;15.57;7.43;;;;;;;;;;5059155;28;20047;-78
2023/03/13 02:39:51;;;;;;;12.27;7.68;;;;;;;;;;5058634;28;20048;-79
2023/03/13 02:42:18;;;;;;;12.50;7.68;;;;;;;;;;5075465;28;20024;-78
2023/03/13 02:44:45;;;;;;;14.23;7.97;;;;;;;;;;5041965;28;20039;-79
2023/03/13 02:47:10;;;;;;;12.90;7.82;;;;;;;;;;5058814;28;20024;-79
2023/03/13 02:49:36;;;;;;;17.65;8.35;;;;;;;;;;5075126;28;20028;-79
2023/03/13 02:52:17;;;;;;;13.90;8.20;;;;;;;;;;5058864;28;20035;-79
2023/03/13 02:54:43;;;;;;;15.88;8.35;;;;;;;;;;5060134;28;20028;-79
2023/03/13 02:57:08;;;;;;;14.77;7.88;;;;;;;;;;5058488;28;20024;-77
2023/03/13 02:59:34;;;;;;;15.00;8.32;;;;;;;;;;5058352;28;20123;-76
2023/03/13 03:01:59;;;;;;;23.63;10.88;;;;;;;;;;5058337;28;20120;-76
2023/03/13 03:04:25;;;;;;;18.13;9.05;;;;;;;;;;5075727;28;20056;-77
2023/03/13 03:06:50;;;;;;;15.25;8.50;;;;;;;;;;5074797;28;20021;-77
2023/03/13 03:09:16;;;;;;;15.88;8.60;;;;;;;;;;5058113;28;20099;-77
2023/03/13 03:11:42;;;;;;;16.30;8.18;;;;;;;;;;5074777;28;20028;-77
2023/03/13 03:14:08;;;;;;;15.38;8.05;;;;;;;;;;5058143;28;20359;-77
2023/03/13 03:16:33;;;;;;;17.63;8.77;;;;;;;;;;5074703;28;20361;-77
2023/03/13 03:18:59;;;;;;;13.82;7.93;;;;;;;;;;5057761;28;20028;-77
2023/03/13 03:21:24;;;;;;;15.50;8.32;;;;;;;;;;5075091;28;20492;-77
2023/03/13 03:23:50;;;;;;;16.63;8.80;;;;;;;;;;5075618;28;20036;-77
2023/03/13 03:26:15;;;;;;;14.45;8.57;;;;;;;;;;5058141;28;20450;-77
2023/03/13 03:28:41;;;;;;;15.32;8.20;;;;;;;;;;5057704;28;20100;-77
2023/03/13 03:31:08;;;;;;;15.45;8.70;;;;;;;;;;5058211;28;20020;-77
2023/03/13 03:33:33;;;;;;;14.88;8.20;;;;;;;;;;5057578;28;20083;-78
2023/03/13 03:36:03;;;;;;;13.23;7.70;;;;;;;;;;5057588;28;20071;-77
2023/03/13 03:38:29;;;;;;;13.30;8.00;;;;;;;;;;5057712;28;20029;-78
2023/03/13 03:40:54;;;;;;;13.93;8.02;;;;;;;;;;5074318;28;20028;-76
2023/03/13 03:43:20;;;;;;;15.95;8.55;;;;;;;;;;5057533;28;20043;-78
2023/03/13 03:45:45;;;;;;;16.13;8.32;;;;;;;;;;5057432;28;20028;-78
2023/03/13 03:48:11;;;;;;;14.20;8.23;;;;;;;;;;5073741;28;20165;-77
2023/03/13 03:50:36;;;;;;;15.65;8.35;;;;;;;;;;5041017;28;20082;-78
2023/03/13 03:53:02;;;;;;;15.38;7.85;;;;;;;;;;5073968;28;20031;-77
2023/03/13 03:55:27;;;;;;;14.13;8.88;;;;;;;;;;5057253;28;20021;-78
2023/03/13 03:57:52;;;;;;;14.65;8.98;;;;;;;;;;5057314;28;20385;-77
2023/03/13 04:00:18;;;;;;;16.75;8.77;;;;;;;;;;5073709;28;20417;-77
2023/03/13 04:02:43;;;;;;;16.38;8.40;;;;;;;;;;5040407;28;20373;-77
2023/03/13 04:05:09;;;;;;;15.38;9.23;;;;;;;;;;5057160;28;20374;-77
2023/03/13 04:07:35;;;;;;;18.08;9.07;;;;;;;;;;5040374;28;20033;-78
2023/03/13 04:10:02;;;;;;;14.07;8.38;;;;;;;;;;5074175;28;20397;-78
2023/03/13 04:12:28;;;;;;;16.83;8.73;;;;;;;;;;5073736;28;20082;-78
2023/03/13 04:14:53;;;;;;;15.52;9.02;;;;;;;;;;5073638;28;20032;-78
2023/03/13 04:17:19;;;;;;;16.13;9.68;;;;;;;;;;5073458;28;20024;-78
2023/03/13 04:19:44;;;;;;;17.55;9.25;;;;;;;;;;5057307;28;20450;-77
2023/03/13 04:22:09;;;;;;;19.88;9.48;;;;;;;;;;5073446;28;20476;-78
2023/03/13 04:24:35;;;;;;;18.88;9.23;;;;;;;;;;5073241;28;20122;-77
2023/03/13 04:27:02;;;;;;;17.42;9.85;;;;;;;;;;5056561;28;20032;-78
2023/03/13 04:29:28;;;;;;;20.13;9.02;;;;;;;;;;5040631;28;20034;-77
2023/03/13 04:31:53;;;;;;;19.15;9.70;;;;;;;;;;5040039;28;20020;-78
2023/03/13 04:34:19;;;;;;;17.42;9.75;;;;;;;;;;5039811;28;20024;-78
2023/03/13 04:36:44;;;;;;;16.73;9.35;;;;;;;;;;5073283;28;20028;-78
2023/03/13 04:39:10;;;;;;;19.00;10.10;;;;;;;;;;5056483;28;20049;-78
2023/03/13 04:41:35;;;;;;;16.67;9.90;;;;;;;;;;5039957;28;20040;-78
2023/03/13 04:44:01;;;;;;;21.40;10.82;;;;;;;;;;5072868;28;20476;-78
2023/03/13 04:46:26;;;;;;;20.80;11.35;;;;;;;;;;5056216;28;20021;-78
2023/03/13 04:48:51;;;;;;;22.45;11.43;;;;;;;;;;5039537;28;20029;-77
2023/03/13 04:51:17;;;;;;;25.02;11.82;;;;;;;;;;5056428;28;20095;-77
2023/03/13 04:53:42;;;;;;;26.95;11.82;;;;;;;;;;5074617;28;20056;-78
2023/03/13 04:56:08;;;;;;;24.67;12.10;;;;;;;;;;5072908;28;20386;-77
2023/03/13 04:58:33;;;;;;;27.67;12.50;;;;;;;;;;5039765;28;20373;-77
2023/03/13 05:00:59;;;;;;;29.48;12.38;;;;;;;;;;5072474;28;20024;-78
2023/03/13 05:03:24;;;;;;;23.00;12.27;;;;;;;;;;5056058;28;20089;-78
2023/03/13 05:05:50;;;;;;;23.98;12.75;;;;;;;;;;5055976;28;20036;-77
2023/03/13 05:08:15;;;;;;;20.73;10.93;;;;;;;;;;5072648;28;20085;-78
2023/03/13 05:10:41;;;;;;;24.95;11.25;;;;;;;;;;5072843;28;20039;-77
2023/03/13 05:13:07;;;;;;;25.25;12.00;;;;;;;;;;5072152;28;20039;-78
2023/03/13 05:15:32;;;;;;;27.25;12.68;;;;;;;;;;5055774;28;20028;-78
2023/03/13 05:17:58;;;;;;;30.52;12.93;;;;;;;;;;5056065;28;20127;-78
2023/03/13 05:20:23;;;;;;;26.10;13.05;;;;;;;;;;5055832;28;20028;-78
2023/03/13 05:22:49;;;;;;;19.45;9.95;;;;;;;;;;5073701;28;20040;-78
2023/03/13 05:25:14;;;;;;;17.67;9.90;;;;;;;;;;5073654;28;20089;-78
2023/03/13 05:27:39;;;;;;;19.60;10.50;;;;;;;;;;5073534;28;20035;-78
2023/03/13 05:30:06;;;;;;;19.05;10.35;;;;;;;;;;5055695;28;20032;-78
2023/03/13 05:32:31;;;;;;;19.98;10.63;;;;;;;;;;5072604;28;20032;-78
2023/03/13 05:34:57;;;;;;;22.35;11.00;;;;;;;;;;5056994;28;20059;-83
2023/03/13 05:37:22;;;;;;;19.27;10.55;;;;;;;;;;5073879;28;20039;-81
2023/03/13 05:39:48;;;;;;;20.90;11.35;;;;;;;;;;5072149;28;20493;-81
2023/03/13 05:42:13;;;;;;;20.17;10.98;;;;;;;;;;5072603;28;20442;-81
2023/03/13 05:44:39;;;;;;;19.73;10.80;;;;;;;;;;5051550;28;20365;-79
2023/03/13 05:47:04;;;;;;;19.60;10.30;;;;;;;;;;5071119;28;20350;-80
2023/03/13 05:49:30;;;;;;;19.33;10.52;;;;;;;;;;5066028;28;20418;-79
2023/03/13 05:51:55;;;;;;;22.30;10.85;;;;;;;;;;5070224;28;20029;-77
2023/03/13 05:54:21;;;;;;;20.73;10.65;;;;;;;;;;5061528;28;20123;-78
2023/03/13 05:56:49;;;;;;;20.25;10.52;;;;;;;;;;5061001;28;20033;-78
2023/03/13 05:59:14;;;;;;;18.45;9.90;;;;;;;;;;5062177;28;20481;-79
2023/03/13 06:01:40;;;;;;;18.58;9.82;;;;;;;;;;5052495;28;20111;-81
2023/03/13 06:04:12;;;;;;;17.42;10.20;;;;;;;;;;5042834;28;20041;-78
2023/03/13 06:06:38;;;;;;;27.00;11.05;;;;;;;;;;5068126;28;20027;-77
2023/03/13 06:09:04;;;;;;;21.83;10.65;;;;;;;;;;5071948;28;20026;-77
2023/03/13 06:11:30;;;;;;;25.80;13.38;;;;;;;;;;5061284;28;20566;-78
2023/03/13 06:13:55;;;;;;;24.00;13.05;;;;;;;;;;5063727;28;20450;-77
2023/03/13 06:16:21;;;;;;;28.15;15.77;;;;;;;;;;5064845;28;20039;-77
2023/03/13 06:18:46;;;;;;;33.50;14.90;;;;;;;;;;5067750;28;20021;-77
2023/03/13 06:21:12;;;;;;;30.80;12.95;;;;;;;;;;5066774;28;20056;-76
2023/03/13 06:23:37;;;;;;;19.98;12.02;;;;;;;;;;5064938;28;20114;-77
2023/03/13 06:26:03;;;;;;;23.13;12.45;;;;;;;;;;5068249;28;20029;-79
2023/03/13 06:28:28;;;;;;;19.25;11.38;;;;;;;;;;5071217;28;20416;-77
2023/03/13 06:31:06;;;;;;;20.73;11.77;;;;;;;;;;5079752;28;20017;-80
2023/03/13 06:33:31;;;;;;;19.73;11.50;;;;;;;;;;5082012;28;20031;-79
2023/03/13 06:35:58;;;;;;;20.65;11.60;;;;;;;;;;5063502;28;20076;-78
2023/03/13 06:38:24;;;;;;;39.05;11.38;;;;;;;;;;5069276;28;20409;-80
2023/03/13 06:40:49;;;;;;;25.45;11.20;;;;;;;;;;5072977;28;20056;-78
2023/03/13 06:43:15;;;;;;;18.98;11.73;;;;;;;;;;5072746;28;20115;-79
2023/03/13 06:45:41;;;;;;;19.33;11.25;;;;;;;;;;5066045;28;20128;-78
2023/03/13 06:48:06;;;;;;;21.08;11.30;;;;;;;;;;5065206;28;20028;-79
2023/03/13 06:50:32;;;;;;;21.48;11.70;;;;;;;;;;5069635;28;20035;-79
2023/03/13 06:52:57;;;;;;;32.92;11.85;;;;;;;;;;5069068;28;20032;-79
2023/03/13 06:55:23;;;;;;;95.28;15.23;;;;;;;;;;5068352;28;20048;-78
2023/03/13 06:57:57;;;;;;;91.80;17.90;;;;;;;;;;5063293;28;20104;-78
2023/03/13 07:00:47;;;;;;;31.58;14.77;;;;;;;;;;5070055;28;20362;-79
2023/03/13 07:03:13;;;;;;;32.95;16.55;;;;;;;;;;5071569;28;20635;-80
2023/03/13 07:05:42;;;;;;;29.70;18.95;;;;;;;;;;5048306;28;20037;-79
2023/03/13 07:08:14;;;;;;;39.23;21.20;;;;;;;;;;5058264;28;20043;-78
2023/03/13 07:10:41;;;;;;;42.15;25.85;;;;;;;;;;5055537;28;20344;-82
2023/03/13 07:13:07;;;;;;;58.15;28.95;;;;;;;;;;5066326;28;20032;-79
2023/03/13 07:15:40;;;;;;;59.10;32.05;;;;;;;;;;5070798;28;20445;-79
2023/03/13 07:18:05;;;;;;;62.60;32.17;;;;;;;;;;5076006;28;20012;-79
2023/03/13 07:20:31;;;;;;;53.63;28.63;;;;;;;;;;5066856;28;20101;-78
2023/03/13 07:23:01;;;;;;;70.50;41.10;;;;;;;;;;5074164;28;20043;-79
2023/03/13 07:25:26;;;;;;;51.25;26.92;;;;;;;;;;5064095;28;20033;-77
2023/03/13 07:27:52;;;;;;;57.28;31.13;;;;;;;;;;5063661;28;20077;-78
2023/03/13 07:30:21;;;;;;;43.88;25.30;;;;;;;;;;5066806;28;20036;-78
2023/03/13 07:32:46;;;;;;;45.63;24.98;;;;;;;;;;5052494;28;20028;-81
2023/03/13 07:35:12;;;;;;;52.58;26.10;;;;;;;;;;5072910;28;20035;-82
2023/03/13 07:37:37;;;;;;;49.13;27.27;;;;;;;;;;5073676;28;20135;-78
2023/03/13 07:40:03;;;;;;;52.95;28.02;;;;;;;;;;5069321;28;20033;-82
2023/03/13 07:42:29;;;;;;;50.05;27.08;;;;;;;;;;5067660;28;20033;-82
2023/03/13 07:44:54;;;;;;;62.60;31.90;;;;;;;;;;5065532;28;20040;-82
2023/03/13 07:47:23;;;;;;;55.13;29.45;;;;;;;;;;5059052;28;20119;-82
2023/03/13 07:49:48;;;;;;;59.40;28.60;;;;;;;;;;5058039;28;20040;-80
2023/03/13 07:52:36;;;;;;;66.28;30.58;;;;;;;;;;5070572;28;20737;-79
2023/03/13 07:55:07;;;;;;;59.92;28.08;;;;;;;;;;5062477;28;20114;-80
2023/03/13 07:57:33;;;;;;;58.13;30.02;;;;;;;;;;5069884;28;20060;-79
2023/03/13 08:00:10;;;;;;;52.58;27.25;;;;;;;;;;5063151;28;20146;-80
2023/03/13 08:02:35;;;;;;;56.10;29.05;;;;;;;;;;5058264;28;20036;-79
2023/03/13 08:05:10;;;;;;;48.58;26.48;;;;;;;;;;5060605;28;20039;-79
2023/03/13 08:07:35;;;;;;;42.58;21.85;;;;;;;;;;5060564;28;20040;-81
2023/03/13 08:10:01;;;;;;;36.97;19.35;;;;;;;;;;5024747;28;20094;-79
2023/03/13 08:12:29;;;;;;;37.28;20.35;;;;;;;;;;5060977;28;20048;-81
2023/03/13 08:14:55;;;;;;;38.97;19.98;;;;;;;;;;5029581;28;20052;-79
2023/03/13 08:17:21;;;;;;;37.58;20.58;;;;;;;;;;5054812;28;20055;-79
2023/03/13 08:19:47;;;;;;;39.75;22.80;;;;;;;;;;5059937;28;20028;-79
2023/03/13 08:22:13;;;;;;;39.13;19.88;;;;;;;;;;5056735;28;20582;-77
2023/03/13 08:24:38;;;;;;;35.72;20.23;;;;;;;;;;5064236;28;20079;-79
2023/03/13 08:27:13;;;;;;;38.35;19.15;;;;;;;;;;5062381;28;20055;-83
2023/03/13 08:29:48;;;;;;;32.22;18.65;;;;;;;;;;5071903;28;20390;-81
2023/03/13 08:32:17;;;;;;;36.70;20.65;;;;;;;;;;5066290;28;20431;-82
2023/03/13 08:34:42;;;;;;;42.40;20.02;;;;;;;;;;5060317;28;20024;-79
2023/03/13 08:37:09;;;;;;;41.50;22.17;;;;;;;;;;5055877;28;20021;-83
2023/03/13 08:39:37;;;;;;;43.78;24.33;;;;;;;;;;5055116;28;20049;-80
2023/03/13 08:42:06;;;;;;;41.38;23.33;;;;;;;;;;5050475;28;20028;-83
2023/03/13 08:44:31;;;;;;;43.30;24.05;;;;;;;;;;5048698;28;20083;-80
2023/03/13 08:46:58;;;;;;;45.60;24.92;;;;;;;;;;5057582;28;20702;-79
2023/03/13 08:49:24;;;;;;;44.30;22.75;;;;;;;;;;5057260;28;20024;-77
2023/03/13 08:51:49;;;;;;;44.42;22.73;;;;;;;;;;5063204;28;20036;-79
2023/03/13 08:54:15;;;;;;;46.05;23.08;;;;;;;;;;5049997;28;20043;-82
2023/03/13 08:56:42;;;;;;;40.53;21.70;;;;;;;;;;5054855;28;20032;-78
2023/03/13 08:59:08;;;;;;;46.45;22.15;;;;;;;;;;5052718;28;20115;-80
2023/03/13 09:01:34;;;;;;;43.20;22.73;;;;;;;;;;5031486;28;20032;-76
2023/03/13 09:04:00;;;;;;;41.58;22.10;;;;;;;;;;5063081;28;20442;-77
2023/03/13 09:06:26;;;;;;;56.85;21.38;;;;;;;;;;5060968;28;20131;-79
2023/03/13 09:08:51;;;;;;;37.22;21.40;;;;;;;;;;5055610;28;20116;-78
2023/03/13 09:11:18;;;;;;;39.95;21.52;;;;;;;;;;5062820;28;20136;-79
2023/03/13 09:13:45;;;;;;;44.05;21.17;;;;;;;;;;5058761;28;20090;-78
2023/03/13 09:16:16;;;;;;;40.47;19.90;;;;;;;;;;5060570;28;20029;-78
2023/03/13 09:18:44;;;;;;;;;;;;;;;;;;5053132;28;20078;-75
2023/03/13 09:21:15;;;;;;;39.92;18.60;;;;;;;;;;5044481;28;19974;-75
2023/03/13 09:23:41;;;;;;;34.42;17.15;;;;;;;;;;5067108;28;20114;-76
2023/03/13 09:26:06;;;;;;;40.97;19.10;;;;;;;;;;5050451;28;20466;-80
2023/03/13 09:28:36;;;;;;;35.70;17.40;;;;;;;;;;5066866;28;20131;-77
2023/03/13 09:31:11;;;;;;;38.55;18.55;;;;;;;;;;5059126;28;20119;-79
2023/03/13 09:33:37;;;;;;;29.63;14.10;;;;;;;;;;5065457;28;20048;-79
2023/03/13 09:36:03;;;;;;;26.83;12.25;;;;;;;;;;5044636;28;20013;-77
2023/03/13 09:38:29;;;;;;;24.80;12.60;;;;;;;;;;5031504;28;20037;-78
2023/03/13 09:40:54;;;;;;;22.42;12.48;;;;;;;;;;5056325;28;20032;-77
2023/03/13 09:43:39;;;;;;;41.00;12.10;;;;;;;;;;5044628;28;20025;-79
2023/03/13 09:46:16;;;;;;;29.98;15.05;;;;;;;;;;5048575;28;20116;-79
2023/03/13 09:48:47;;;;;;;34.17;16.80;;;;;;;;;;5067371;28;20025;-79
2023/03/13 09:51:18;;;;;;;42.55;19.30;;;;;;;;;;5061179;28;20049;-79
2023/03/13 09:53:57;;;;;;;51.60;22.88;;;;;;;;;;5063688;28;20041;-77
2023/03/13 09:56:25;;;;;;;36.08;17.40;;;;;;;;;;5062397;28;20371;-75
2023/03/13 09:59:25;;;;;;;36.42;15.95;;;;;;;;;;5051575;28;20033;-76
2023/03/13 10:01:50;;;;;;;27.67;13.45;;;;;;;;;;5046607;28;20126;-77
2023/03/13 10:04:37;;;;;;;27.25;13.20;;;;;;;;;;5054794;28;20082;-76
2023/03/13 10:07:02;;;;;;;25.20;12.75;;;;;;;;;;5035793;28;20038;-76
2023/03/13 10:09:31;;;;;;;27.80;12.40;;;;;;;;;;5065033;28;20051;-78
2023/03/13 10:12:20;;;;;;;28.33;12.98;;;;;;;;;;5055737;28;20029;-77
2023/03/13 10:15:07;;;;;;;24.00;12.98;;;;;;;;;;5070514;28;20656;-77
2023/03/13 10:17:37;;;;;;;23.67;11.95;;;;;;;;;;5073418;28;20040;-78
2023/03/13 10:20:22;;;;;;;24.25;12.73;;;;;;;;;;5072430;28;20060;-78
2023/03/13 10:22:57;;;;;;;24.02;13.02;;;;;;;;;;5073528;28;20134;-78
2023/03/13 10:25:32;;;;;;;26.00;13.43;;;;;;;;;;5057802;28;20024;-78
2023/03/13 10:27:58;;;;;;;31.77;13.80;;;;;;;;;;5074209;28;20020;-75
2023/03/13 10:30:28;;;;;;;25.35;13.00;;;;;;;;;;5076094;28;20479;-77
2023/03/13 10:33:17;;;;;;;29.35;13.30;;;;;;;;;;5077450;28;20067;-76
2023/03/13 10:35:43;;;;;;;23.23;12.73;;;;;;;;;;5067645;28;20116;-74
2023/03/13 10:38:20;;;;;;;24.67;13.68;;;;;;;;;;5071713;28;20033;-76
2023/03/13 10:41:00;;;;;;;31.73;13.88;;;;;;;;;;5027529;28;20033;-76
2023/03/13 10:43:25;;;;;;;26.58;12.88;;;;;;;;;;5026410;28;20029;-77
2023/03/13 10:45:57;;;;;;;24.10;13.15;;;;;;;;;;5030179;28;20049;-76
2023/03/13 10:48:29;;;;;;;23.85;13.23;;;;;;;;;;5013119;28;20782;-77
2023/03/13 10:50:58;;;;;;;22.30;12.50;;;;;;;;;;5026936;28;20478;-76
2023/03/13 10:53:34;;;;;;;23.47;12.43;;;;;;;;;;5024750;28;20673;-75
2023/03/13 10:56:13;;;;;;;23.05;12.52;;;;;;;;;;5022407;28;20284;-85
2023/03/13 10:58:44;;;;;;;23.52;12.63;;;;;;;;;;5018745;28;20570;-79
2023/03/13 11:01:17;;;;;;;24.20;12.65;;;;;;;;;;5035677;28;20061;-76
2023/03/13 11:03:43;;;;;;;20.02;12.40;;;;;;;;;;5034194;28;20025;-78
2023/03/13 11:06:24;;;;;;;25.92;12.85;;;;;;;;;;5044024;28;20575;-78
2023/03/13 11:08:49;;;;;;;21.17;12.45;;;;;;;;;;5025714;28;20022;-78
2023/03/13 11:11:19;;;;;;;23.33;13.38;;;;;;;;;;5009527;28;20035;-76
2023/03/13 11:13:44;;;;;;;25.73;13.73;;;;;;;;;;5033677;28;20124;-78
2023/03/13 11:16:15;;;;;;;26.85;14.40;;;;;;;;;;5030272;28;20156;-78
2023/03/13 11:19:10;;;;;;;27.63;13.45;;;;;;;;;;5031118;28;20030;-77
2023/03/13 11:21:57;;;;;;;26.27;13.48;;;;;;;;;;5031585;28;20040;-79
2023/03/13 11:24:47;;;;;;;30.52;13.73;;;;;;;;;;5020619;28;20052;-77
2023/03/13 11:27:23;;;;;;;32.20;15.30;;;;;;;;;;5031509;28;20633;-78
2023/03/13 11:30:05;;;;;;;26.35;14.80;;;;;;;;;;5022503;28;20061;-79
2023/03/13 11:32:48;;;;;;;23.60;14.13;;;;;;;;;;5024141;28;20455;-79
2023/03/13 11:35:20;;;;;;;28.63;14.48;;;;;;;;;;5029699;28;20364;-77
2023/03/13 11:37:45;;;;;;;33.75;15.27;;;;;;;;;;5024042;28;20048;-77
2023/03/13 11:40:35;;;;;;;29.10;14.38;;;;;;;;;;5043086;28;20056;-78
2023/03/13 11:43:22;;;;;;;28.63;13.48;;;;;;;;;;5057228;28;20036;-77
2023/03/13 11:46:09;;;;;;;25.58;12.80;;;;;;;;;;5065197;28;20043;-77
2023/03/13 11:48:50;;;;;;;23.05;11.73;;;;;;;;;;5064030;28;20032;-77
2023/03/13 11:51:31;;;;;;;21.08;11.70;;;;;;;;;;5068568;28;20118;-78
2023/03/13 11:54:15;;;;;;;25.25;12.32;;;;;;;;;;5060506;28;20089;-76
2023/03/13 11:56:46;;;;;;;27.30;11.70;;;;;;;;;;5061957;28;20028;-77
2023/03/13 11:59:14;;;;;;;21.67;11.45;;;;;;;;;;5063674;28;20024;-79
2023/03/13 12:01:42;;;;;;;26.08;12.85;;;;;;;;;;5060028;28;20040;-80
2023/03/13 12:04:21;;;;;;;21.75;11.70;;;;;;;;;;5048461;28;20033;-78
2023/03/13 12:07:27;;;;;;;21.60;11.53;;;;;;;;;;5064067;28;20021;-77
2023/03/13 12:10:13;;;;;;;25.58;11.57;;;;;;;;;;4965634;28;20450;-77
2023/03/13 12:13:06;;;;;;;22.88;10.80;;;;;;;;;;4974978;28;20045;-78
2023/03/13 12:15:37;;;;;;;18.63;9.93;;;;;;;;;;5035987;28;20679;-78
2023/03/13 12:18:14;;;;;;;21.83;10.63;;;;;;;;;;5048498;28;20028;-77
2023/03/13 12:21:12;;;;;;;16.55;9.80;;;;;;;;;;5055841;28;20472;-77
2023/03/13 12:23:37;;;;;;;19.13;10.18;;;;;;;;;;5065827;28;20044;-78
2023/03/13 12:26:10;;;;;;;18.45;9.95;;;;;;;;;;5067420;28;20082;-75
2023/03/13 12:28:59;;;;;;;15.88;9.80;;;;;;;;;;5056069;28;20052;-77
2023/03/13 12:31:31;;;;;;;19.55;10.35;;;;;;;;;;5053300;28;20480;-77
2023/03/13 12:34:02;;;;;;;22.15;10.80;;;;;;;;;;5060822;28;20082;-75
2023/03/13 12:37:00;;;;;;;19.23;10.18;;;;;;;;;;5067364;28;20107;-77
2023/03/13 12:39:42;;;;;;;28.50;11.95;;;;;;;;;;5057788;28;20068;-77
2023/03/13 12:42:27;;;;;;;24.35;11.55;;;;;;;;;;5052086;28;20040;-77
2023/03/13 12:44:53;;;;;;;17.40;10.07;;;;;;;;;;5068740;28;20032;-77
2023/03/13 12:47:32;;;;;;;20.13;9.45;;;;;;;;;;5052336;28;20051;-76
2023/03/13 12:50:16;;;;;;;20.90;9.80;;;;;;;;;;5051540;28;20438;-78
2023/03/13 12:52:41;;;;;;;18.63;9.98;;;;;;;;;;5053585;28;20050;-77
2023/03/13 12:55:07;;;;;;;26.65;9.98;;;;;;;;;;5071440;28;20122;-76
2023/03/13 12:58:00;;;;;;;19.50;9.80;;;;;;;;;;5071022;28;20029;-78
2023/03/13 13:00:26;;;;;;;19.73;9.25;;;;;;;;;;5071126;28;20032;-79
2023/03/13 13:03:16;;;;;;;20.75;9.60;;;;;;;;;;5054078;28;20457;-79
2023/03/13 13:05:58;;;;;;;18.20;8.73;;;;;;;;;;5072956;28;20127;-77
2023/03/13 13:08:24;;;;;;;15.98;9.43;;;;;;;;;;5073374;28;20039;-78
2023/03/13 13:10:50;;;;;;;18.20;9.73;;;;;;;;;;5055136;28;20029;-77
2023/03/13 13:13:16;;;;;;;18.38;9.23;;;;;;;;;;5054754;28;20036;-78
2023/03/13 13:15:59;;;;;;;19.30;10.10;;;;;;;;;;5056039;28;20028;-78
2023/03/13 13:18:28;;;;;;;16.05;8.55;;;;;;;;;;5072921;28;20414;-78
2023/03/13 13:21:05;;;;;;;22.87;9.17;;;;;;;;;;5056792;28;20399;-79
2023/03/13 13:23:32;;;;;;;24.23;9.20;;;;;;;;;;5071665;28;20083;-79
2023/03/13 13:26:29;;;;;;;16.50;8.45;;;;;;;;;;5056056;28;20365;-77
2023/03/13 13:29:00;;;;;;;14.43;8.15;;;;;;;;;;5073555;28;20039;-78
2023/03/13 13:31:44;;;;;;;19.80;7.68;;;;;;;;;;5072278;28;20044;-78
2023/03/13 13:34:29;;;;;;;16.63;8.75;;;;;;;;;;5073068;28;20029;-78
2023/03/13 13:36:58;;;;;;;16.65;8.80;;;;;;;;;;5077751;28;20029;-79
2023/03/13 13:39:49;;;;;;;15.65;7.90;;;;;;;;;;5076559;28;20056;-79
2023/03/13 13:42:30;;;;;;;15.25;8.38;;;;;;;;;;5060533;28;20028;-79
2023/03/13 13:44:59;;;;;;;17.90;9.05;;;;;;;;;;5076236;28;20094;-78
2023/03/13 13:47:25;;;;;;;13.70;8.65;;;;;;;;;;5076564;28;20358;-79
2023/03/13 13:49:53;;;;;;;18.10;9.88;;;;;;;;;;5059870;28;20051;-79
2023/03/13 13:52:34;;;;;;;17.58;8.27;;;;;;;;;;5076602;28;20347;-78
2023/03/13 13:55:00;;;;;;;19.58;9.38;;;;;;;;;;5059314;28;20527;-80
2023/03/13 13:57:27;;;;;;;14.85;8.15;;;;;;;;;;5077342;28;20108;-79
2023/03/13 14:00:19;;;;;;;13.50;7.90;;;;;;;;;;5059123;28;20438;-79
2023/03/13 14:02:50;;;;;;;16.75;8.05;;;;;;;;;;5075335;28;20150;-79
2023/03/13 14:05:25;;;;;;;16.40;7.13;;;;;;;;;;5054866;28;20458;-80
2023/03/13 14:07:56;;;;;;;11.68;7.00;;;;;;;;;;5043706;28;20034;-79
2023/03/13 14:10:37;;;;;;;13.02;7.20;;;;;;;;;;5076940;28;20033;-80
2023/03/13 14:13:09;;;;;;;;;;;;;;;;;;5059723;28;20067;-80
2023/03/13 14:15:35;;;;;;;12.68;6.88;;;;;;;;;;5074780;28;19935;-79
2023/03/13 14:18:23;;;;;;;14.45;6.93;;;;;;;;;;5057861;28;20051;-79
2023/03/13 14:20:48;;;;;;;11.75;6.95;;;;;;;;;;5075055;28;20032;-79
2023/03/13 14:23:14;;;;;;;15.02;8.10;;;;;;;;;;5076182;28;20040;-79
2023/03/13 14:25:44;;;;;;;15.60;7.47;;;;;;;;;;5073788;28;20025;-80
2023/03/13 14:28:23;;;;;;;12.98;7.45;;;;;;;;;;5058720;28;20028;-79
2023/03/13 14:30:50;;;;;;;15.07;7.70;;;;;;;;;;5059144;28;20032;-79
2023/03/13 14:33:16;;;;;;;13.50;7.47;;;;;;;;;;5075473;28;20044;-79
2023/03/13 14:35:42;;;;;;;14.25;7.05;;;;;;;;;;5057534;28;20369;-79
2023/03/13 14:38:24;;;;;;;12.52;7.20;;;;;;;;;;5059043;28;20115;-79
2023/03/13 14:40:50;;;;;;;16.60;7.25;;;;;;;;;;5060301;28;20067;-78